createdAt,value
2023-04-19T00:00:21.506Z,12.88
2023-04-19T00:02:51.722Z,12.87
2023-04-19T00:05:20.286Z,13.08
2023-04-19T00:07:47.447Z,12.94
2023-04-19T00:10:14.554Z,12.73
2023-04-19T00:12:41.629Z,12.92
2023-04-19T00:15:09.043Z,13.00
2023-04-19T00:17:36.456Z,12.77
2023-04-19T00:20:04.531Z,13.25
2023-04-19T00:22:31.710Z,13.28
2023-04-19T00:24:59.196Z,13.62
2023-04-19T00:27:26.289Z,13.55
2023-04-19T00:29:53.518Z,13.49
2023-04-19T00:32:20.985Z,13.03
2023-04-19T00:34:48.138Z,13.57
2023-04-19T00:37:15.250Z,13.51
2023-04-19T00:39:42.369Z,13.84
2023-04-19T00:42:09.523Z,13.99
2023-04-19T00:44:36.655Z,14.10
2023-04-19T00:47:04.115Z,14.33
2023-04-19T00:49:31.430Z,14.08
2023-04-19T00:51:58.496Z,13.74
2023-04-19T00:54:26.092Z,13.18
2023-04-19T00:56:53.506Z,13.18
2023-04-19T00:59:20.803Z,13.48
2023-04-19T01:01:48.357Z,13.85
2023-04-19T01:04:16.853Z,12.98
2023-04-19T01:06:44.485Z,12.17
2023-04-19T01:09:11.634Z,12.17
2023-04-19T01:11:43.161Z,12.13
2023-04-19T01:14:11.006Z,12.38
2023-04-19T01:16:39.403Z,11.98
2023-04-19T01:19:06.730Z,11.77
2023-04-19T01:21:38.394Z,12.35
2023-04-19T01:24:06.103Z,12.37
2023-04-19T01:26:33.232Z,12.61
2023-04-19T01:29:02.871Z,13.17
2023-04-19T01:31:30.057Z,13.02
2023-04-19T01:33:57.293Z,13.14
2023-04-19T01:36:24.361Z,13.25
2023-04-19T01:38:51.506Z,12.94
2023-04-19T01:41:20.561Z,12.28
2023-04-19T01:43:47.703Z,11.97
2023-04-19T01:46:15.224Z,12.16
2023-04-19T01:48:42.338Z,12.18
2023-04-19T01:51:09.460Z,11.99
2023-04-19T01:53:36.529Z,12.18
2023-04-19T01:56:03.798Z,12.49
2023-04-19T01:58:30.837Z,12.74
2023-04-19T02:00:57.963Z,12.64
2023-04-19T02:03:25.420Z,12.63
2023-04-19T02:05:52.700Z,12.60
2023-04-19T02:08:22.474Z,12.85
2023-04-19T02:10:49.504Z,12.61
2023-04-19T02:13:17.480Z,11.92
2023-04-19T02:15:44.645Z,11.71
2023-04-19T02:18:11.908Z,11.42
2023-04-19T02:20:40.293Z,11.68
2023-04-19T02:23:07.542Z,12.31
2023-04-19T02:25:34.665Z,12.44
2023-04-19T02:28:01.860Z,12.25
2023-04-19T02:30:29.059Z,11.87
2023-04-19T02:32:56.265Z,11.98
2023-04-19T02:35:23.378Z,11.66
2023-04-19T02:37:50.469Z,12.15
2023-04-19T02:40:19.008Z,12.02
2023-04-19T02:42:46.165Z,12.57
2023-04-19T02:45:13.255Z,12.91
2023-04-19T02:47:40.615Z,12.83
2023-04-19T02:50:08.240Z,12.90
2023-04-19T02:52:44.302Z,12.93
2023-04-19T02:55:11.607Z,13.34
2023-04-19T02:57:38.921Z,13.22
2023-04-19T03:00:09.259Z,13.08
2023-04-19T03:02:43.869Z,13.59
2023-04-19T03:05:11.297Z,13.66
2023-04-19T03:07:38.531Z,13.58
2023-04-19T03:10:06.324Z,13.48
2023-04-19T03:12:33.404Z,12.89
2023-04-19T03:15:00.614Z,13.39
2023-04-19T03:17:27.795Z,13.56
2023-04-19T03:19:54.950Z,13.07
2023-04-19T03:22:22.070Z,12.76
2023-04-19T03:24:49.152Z,12.32
2023-04-19T03:27:21.572Z,12.78
2023-04-19T03:29:56.023Z,12.98
2023-04-19T03:32:23.642Z,13.22
2023-04-19T03:34:50.956Z,13.39
2023-04-19T03:37:17.995Z,12.23
2023-04-19T03:39:45.748Z,12.97
2023-04-19T03:42:17.596Z,13.14
2023-04-19T03:45:04.322Z,12.89
2023-04-19T03:47:34.742Z,12.46
2023-04-19T03:50:03.548Z,12.51
2023-04-19T03:52:33.173Z,12.66
2023-04-19T03:55:00.580Z,12.46
2023-04-19T03:57:35.642Z,13.09
2023-04-19T04:00:11.058Z,13.60
2023-04-19T04:02:49.427Z,13.41
2023-04-19T04:05:17.110Z,13.29
2023-04-19T04:07:44.424Z,13.29
2023-04-19T04:10:12.007Z,13.06
2023-04-19T04:12:42.704Z,12.28
2023-04-19T04:15:13.757Z,11.67
2023-04-19T04:17:47.065Z,12.22
2023-04-19T04:20:14.460Z,12.65
2023-04-19T04:22:43.392Z,12.79
2023-04-19T04:25:13.600Z,13.23
2023-04-19T04:27:42.762Z,13.51
2023-04-19T04:30:13.701Z,13.33
2023-04-19T04:32:41.272Z,12.60
2023-04-19T04:35:09.712Z,12.45
2023-04-19T04:37:49.518Z,11.98
2023-04-19T04:40:16.820Z,11.88
2023-04-19T04:42:45.658Z,12.22
2023-04-19T04:45:13.138Z,12.36
2023-04-19T04:47:43.304Z,12.65
2023-04-19T04:50:11.535Z,13.24
2023-04-19T04:52:39.085Z,13.59
2023-04-19T04:55:13.078Z,13.08
2023-04-19T04:57:43.953Z,12.60
2023-04-19T05:00:32.454Z,12.20
2023-04-19T05:03:05.600Z,12.40
2023-04-19T05:05:37.690Z,12.21
2023-04-19T05:08:05.534Z,11.96
2023-04-19T05:10:32.723Z,12.25
2023-04-19T05:13:01.847Z,12.21
2023-04-19T05:15:30.244Z,12.01
2023-04-19T05:17:57.828Z,12.01
2023-04-19T05:20:26.037Z,11.81
2023-04-19T05:23:03.453Z,11.37
2023-04-19T05:25:33.012Z,11.48
2023-04-19T05:28:00.620Z,11.18
2023-04-19T05:30:33.786Z,11.34
2023-04-19T05:33:01.957Z,11.68
2023-04-19T05:35:29.285Z,12.01
2023-04-19T05:37:56.557Z,12.05
2023-04-19T05:40:24.645Z,11.90
2023-04-19T05:42:52.110Z,11.55
2023-04-19T05:45:19.310Z,11.26
2023-04-19T05:47:46.512Z,10.89
2023-04-19T05:50:32.044Z,10.63
2023-04-19T05:53:37.560Z,10.91
2023-04-19T05:56:05.363Z,10.91
2023-04-19T05:58:32.649Z,10.99
2023-04-19T06:01:00.110Z,11.38
2023-04-19T06:03:29.022Z,11.94
2023-04-19T06:05:59.614Z,12.68
2023-04-19T06:08:26.980Z,13.05
2023-04-19T06:11:02.095Z,13.11
2023-04-19T06:13:32.191Z,13.02
2023-04-19T06:15:59.346Z,11.93
2023-04-19T06:18:26.681Z,11.75
2023-04-19T06:20:54.090Z,12.01
2023-04-19T06:23:21.166Z,11.84
2023-04-19T06:25:51.082Z,11.60
2023-04-19T06:28:18.763Z,11.22
2023-04-19T06:30:46.261Z,11.08
2023-04-19T06:33:13.411Z,11.11
2023-04-19T06:35:40.780Z,10.93
2023-04-19T06:38:08.077Z,11.15
2023-04-19T06:40:35.336Z,11.69
2023-04-19T06:43:02.405Z,11.30
2023-04-19T06:45:33.056Z,11.61
2023-04-19T06:48:00.258Z,12.15
2023-04-19T06:50:27.887Z,12.79
2023-04-19T06:52:55.015Z,13.21
2023-04-19T06:55:22.174Z,12.61
2023-04-19T06:57:49.341Z,12.67
2023-04-19T07:00:16.711Z,12.95
2023-04-19T07:02:44.164Z,12.86
2023-04-19T07:05:13.020Z,12.65
2023-04-19T07:07:41.439Z,12.78
2023-04-19T07:10:09.652Z,12.68
2023-04-19T07:12:36.771Z,12.85
2023-04-19T07:15:04.241Z,13.22
2023-04-19T07:17:31.309Z,12.79
2023-04-19T07:19:58.423Z,13.78
2023-04-19T07:22:25.489Z,13.16
2023-04-19T07:24:54.301Z,13.40
2023-04-19T07:27:21.351Z,13.29
2023-04-19T07:29:48.519Z,13.97
2023-04-19T07:32:15.595Z,14.35
2023-04-19T07:34:43.748Z,14.31
2023-04-19T07:37:10.881Z,14.32
2023-04-19T07:39:37.917Z,13.71
2023-04-19T07:42:05.182Z,13.98
2023-04-19T07:44:35.497Z,13.07
2023-04-19T07:47:04.657Z,13.22
2023-04-19T07:49:34.354Z,13.39
2023-04-19T07:52:02.091Z,13.82
2023-04-19T07:54:31.465Z,13.49
2023-04-19T07:56:59.200Z,14.03
2023-04-19T07:59:26.683Z,13.69
2023-04-19T08:01:53.904Z,13.99
2023-04-19T08:04:23.367Z,13.25
2023-04-19T08:06:51.196Z,13.37
2023-04-19T08:09:18.313Z,12.44
2023-04-19T08:11:45.995Z,11.50
2023-04-19T08:14:30.423Z,11.64
2023-04-19T08:19:30.700Z,12.82
2023-04-19T08:21:57.927Z,13.49
2023-04-19T08:24:24.987Z,13.95
2023-04-19T08:26:55.121Z,13.15
2023-04-19T08:29:23.290Z,13.20
2023-04-19T08:31:50.383Z,11.75
2023-04-19T08:34:17.449Z,11.53
2023-04-19T08:36:55.959Z,11.58
2023-04-19T08:39:34.128Z,12.05
2023-04-19T08:42:18.163Z,11.85
2023-04-19T08:45:23.350Z,12.02
2023-04-19T08:47:58.813Z,12.22
2023-04-19T08:50:34.572Z,12.61
2023-04-19T08:53:23.752Z,13.06
2023-04-19T08:56:07.899Z,12.82
2023-04-19T08:58:57.073Z,12.87
2023-04-19T09:01:35.411Z,13.05
2023-04-19T09:04:26.101Z,13.10
2023-04-19T09:06:54.803Z,12.65
2023-04-19T09:09:38.726Z,12.35
2023-04-19T09:12:18.284Z,12.40
2023-04-19T09:14:59.997Z,12.71
2023-04-19T09:17:28.105Z,12.80
2023-04-19T09:19:55.205Z,13.42
2023-04-19T09:22:22.382Z,13.94
2023-04-19T09:27:27.174Z,13.74
2023-04-19T09:29:58.824Z,13.64
2023-04-19T09:32:27.151Z,12.72
2023-04-19T09:34:59.747Z,12.73
2023-04-19T09:39:57.683Z,12.23
2023-04-19T09:42:47.411Z,11.78
2023-04-19T09:45:29.161Z,12.08
2023-04-19T09:48:07.981Z,12.24
2023-04-19T09:50:46.848Z,11.93
2023-04-19T09:53:22.244Z,11.49
2023-04-19T09:56:00.176Z,11.47
2023-04-19T09:58:34.358Z,11.40
2023-04-19T10:01:15.642Z,11.56
2023-04-19T10:03:46.660Z,11.78
2023-04-19T10:06:40.020Z,11.65
2023-04-19T10:09:05.463Z,11.61
2023-04-19T10:11:41.526Z,11.56
2023-04-19T10:14:11.990Z,11.41
2023-04-19T10:16:39.527Z,11.42
2023-04-19T10:19:10.286Z,11.54
2023-04-19T10:21:38.381Z,11.54
2023-04-19T10:24:06.188Z,11.80
2023-04-19T10:27:12.560Z,12.60
2023-04-19T10:29:55.818Z,12.45
2023-04-19T10:32:38.654Z,12.36
2023-04-19T10:35:09.575Z,12.45
2023-04-19T10:37:42.131Z,12.00
2023-04-19T10:40:10.131Z,11.93
2023-04-19T10:43:21.879Z,12.79
2023-04-19T10:45:49.947Z,12.37
2023-04-19T10:48:35.547Z,12.22
2023-04-19T10:51:03.838Z,12.93
2023-04-19T10:53:52.766Z,12.91
2023-04-19T10:56:34.855Z,13.46
2023-04-19T10:59:02.413Z,14.14
2023-04-19T11:01:38.322Z,13.56
2023-04-19T11:04:09.999Z,12.76
2023-04-19T11:06:54.881Z,12.54
2023-04-19T11:09:25.493Z,12.29
2023-04-19T11:11:54.621Z,11.98
2023-04-19T11:14:21.912Z,11.85
2023-04-19T11:16:49.034Z,11.86
2023-04-19T11:19:17.298Z,11.45
2023-04-19T11:21:49.706Z,11.48
2023-04-19T11:24:19.029Z,11.14
2023-04-19T11:26:47.261Z,10.91
2023-04-19T11:29:15.112Z,11.35
2023-04-19T11:31:46.659Z,11.63
2023-04-19T11:34:14.014Z,11.66
2023-04-19T11:36:48.769Z,11.79
2023-04-19T11:39:16.417Z,11.49
2023-04-19T11:41:43.506Z,11.28
2023-04-19T11:44:19.757Z,11.57
2023-04-19T11:46:59.220Z,11.90
2023-04-19T11:49:33.613Z,11.37
2023-04-19T11:52:05.496Z,11.44
2023-04-19T11:54:33.294Z,11.53
2023-04-19T11:57:04.873Z,11.28
2023-04-19T11:59:33.842Z,11.41
2023-04-19T12:02:12.450Z,11.46
2023-04-19T12:04:40.495Z,11.37
2023-04-19T12:07:07.717Z,12.08
2023-04-19T12:09:36.508Z,12.54
2023-04-19T12:12:05.204Z,12.71
2023-04-19T12:14:32.444Z,12.85
2023-04-19T12:17:09.435Z,13.33
2023-04-19T12:19:47.498Z,13.44
2023-04-19T12:22:17.459Z,13.58
2023-04-19T12:24:44.648Z,13.49
2023-04-19T12:27:12.185Z,13.35
2023-04-19T12:29:39.607Z,13.81
2023-04-19T12:32:07.138Z,13.67
2023-04-19T12:34:34.253Z,13.96
2023-04-19T12:37:03.807Z,14.66
2023-04-19T12:39:31.172Z,15.14
2023-04-19T12:41:58.224Z,14.22
2023-04-19T12:44:25.326Z,13.93
2023-04-19T12:46:55.383Z,14.55
2023-04-19T12:49:22.446Z,14.41
2023-04-19T12:51:49.548Z,14.83
2023-04-19T12:54:16.639Z,14.82
2023-04-19T12:56:43.688Z,14.36
2023-04-19T12:59:11.605Z,15.30
2023-04-19T13:01:38.887Z,15.81
2023-04-19T13:04:07.899Z,16.14
2023-04-19T13:06:35.147Z,16.03
2023-04-19T13:09:11.512Z,15.76
2023-04-19T13:11:41.216Z,15.50
2023-04-19T13:14:08.363Z,15.06
2023-04-19T13:16:35.563Z,14.80
2023-04-19T13:19:02.669Z,14.83
2023-04-19T13:21:29.721Z,15.06
2023-04-19T13:23:58.990Z,15.13
2023-04-19T13:26:26.465Z,14.92
2023-04-19T13:28:53.578Z,14.91
2023-04-19T13:31:20.676Z,14.84
2023-04-19T13:33:47.942Z,14.70
2023-04-19T13:36:15.023Z,14.20
2023-04-19T13:38:42.112Z,14.41
2023-04-19T13:41:09.845Z,14.73
2023-04-19T13:43:36.994Z,14.53
2023-04-19T13:46:04.164Z,14.72
2023-04-19T13:48:31.507Z,14.51
2023-04-19T13:50:59.464Z,14.16
2023-04-19T13:53:29.191Z,13.92
2023-04-19T13:55:57.058Z,14.07
2023-04-19T13:58:27.368Z,13.99
2023-04-19T14:00:54.539Z,14.46
2023-04-19T14:03:23.246Z,14.61
2023-04-19T14:05:50.486Z,14.66
2023-04-19T14:08:17.724Z,14.32
2023-04-19T14:10:44.802Z,14.30
2023-04-19T14:13:11.934Z,14.29
2023-04-19T14:15:39.843Z,14.48
2023-04-19T14:18:07.101Z,14.01
2023-04-19T14:20:34.615Z,14.33
2023-04-19T14:23:02.006Z,14.54
2023-04-19T14:25:29.182Z,13.96
2023-04-19T14:27:56.313Z,14.26
2023-04-19T14:30:26.037Z,13.91
2023-04-19T14:32:53.353Z,13.52
2023-04-19T14:35:20.696Z,13.82
2023-04-19T14:37:47.802Z,13.55
2023-04-19T14:40:14.925Z,13.39
2023-04-19T14:42:41.986Z,13.38
2023-04-19T14:45:09.465Z,13.52
2023-04-19T14:47:36.638Z,13.16
2023-04-19T14:50:04.388Z,13.41
2023-04-19T14:52:31.520Z,13.51
2023-04-19T14:55:00.256Z,13.44
2023-04-19T14:57:28.244Z,13.30
2023-04-19T14:59:58.893Z,13.60
2023-04-19T15:02:26.068Z,13.33
2023-04-19T15:04:54.120Z,13.19
2023-04-19T15:07:21.871Z,13.05
2023-04-19T15:09:49.023Z,13.04
2023-04-19T15:12:16.163Z,13.23
2023-04-19T15:14:43.203Z,13.20
2023-04-19T15:17:10.440Z,13.25
2023-04-19T15:19:39.049Z,13.13
2023-04-19T15:22:06.519Z,13.00
2023-04-19T15:24:36.670Z,12.95
2023-04-19T15:27:04.251Z,13.04
2023-04-19T15:29:31.355Z,13.35
2023-04-19T15:31:58.543Z,13.62
2023-04-19T15:34:25.758Z,13.53
2023-04-19T15:36:52.825Z,13.44
2023-04-19T15:39:20.070Z,13.80
2023-04-19T15:41:47.204Z,13.62
2023-04-19T15:44:14.423Z,13.85
2023-04-19T15:46:41.653Z,13.30
2023-04-19T15:49:08.853Z,13.18
2023-04-19T15:51:36.154Z,13.55
2023-04-19T15:54:03.973Z,13.57
2023-04-19T15:56:31.510Z,13.57
2023-04-19T15:58:58.566Z,13.85
2023-04-19T16:01:25.698Z,13.56
2023-04-19T16:03:52.918Z,13.36
2023-04-19T16:06:20.334Z,13.47
2023-04-19T16:08:47.413Z,13.36
2023-04-19T16:11:14.488Z,13.56
2023-04-19T16:13:41.738Z,13.68
2023-04-19T16:16:08.951Z,13.42
2023-04-19T16:18:36.373Z,13.68
2023-04-19T16:21:04.006Z,13.58
2023-04-19T16:23:31.180Z,13.39
2023-04-19T16:25:58.273Z,13.64
2023-04-19T16:28:25.466Z,13.58
2023-04-19T16:30:52.583Z,13.26
2023-04-19T16:33:19.745Z,13.57
2023-04-19T16:35:46.983Z,13.80
2023-04-19T16:38:14.028Z,13.89
2023-04-19T16:40:41.141Z,14.50
2023-04-19T16:43:08.195Z,14.41
2023-04-19T16:45:35.517Z,14.75
2023-04-19T16:48:02.758Z,14.70
2023-04-19T16:50:30.016Z,14.83
2023-04-19T16:52:57.077Z,14.26
2023-04-19T16:55:24.257Z,14.26
2023-04-19T16:57:51.414Z,14.52
2023-04-19T17:00:18.849Z,14.78
2023-04-19T17:02:46.202Z,14.40
2023-04-19T17:05:14.579Z,14.58
2023-04-19T17:07:42.311Z,14.92
2023-04-19T17:10:10.002Z,15.07
2023-04-19T17:12:37.411Z,15.06
2023-04-19T17:15:05.053Z,15.07
2023-04-19T17:17:32.223Z,14.87
2023-04-19T17:19:59.705Z,14.61
2023-04-19T17:22:26.888Z,14.63
2023-04-19T17:24:56.020Z,14.69
2023-04-19T17:27:23.179Z,14.58
2023-04-19T17:29:50.394Z,14.60
2023-04-19T17:32:17.564Z,14.61
2023-04-19T17:34:44.704Z,14.47
2023-04-19T17:37:12.092Z,14.15
2023-04-19T17:39:39.188Z,14.24
2023-04-19T17:42:06.435Z,14.38
2023-04-19T17:44:33.562Z,14.30
2023-04-19T17:47:01.327Z,14.21
2023-04-19T17:49:28.924Z,13.82
2023-04-19T17:51:56.944Z,13.38
2023-04-19T17:54:24.345Z,12.93
2023-04-19T17:56:52.811Z,12.94
2023-04-19T17:59:20.303Z,13.06
2023-04-19T18:01:47.356Z,13.25
2023-04-19T18:04:18.109Z,13.43
2023-04-19T18:06:47.005Z,13.08
2023-04-19T18:09:14.659Z,12.90
2023-04-19T18:11:42.004Z,12.94
2023-04-19T18:14:09.257Z,12.85
2023-04-19T18:16:36.435Z,13.10
2023-04-19T18:19:03.694Z,13.15
2023-04-19T18:21:30.796Z,13.24
2023-04-19T18:23:58.005Z,13.26
2023-04-19T18:26:25.116Z,13.39
2023-04-19T18:28:52.268Z,13.53
2023-04-19T18:31:19.414Z,13.18
2023-04-19T18:33:46.489Z,12.86
2023-04-19T18:36:13.553Z,12.65
2023-04-19T18:38:40.717Z,12.16
2023-04-19T18:41:07.877Z,12.09
2023-04-19T18:43:35.115Z,11.98
2023-04-19T18:46:02.305Z,11.96
2023-04-19T18:48:30.095Z,11.79
2023-04-19T18:50:57.783Z,11.79
2023-04-19T18:53:27.804Z,11.99
2023-04-19T18:55:58.576Z,11.96
2023-04-19T18:58:29.662Z,11.99
2023-04-19T19:00:57.161Z,12.23
2023-04-19T19:05:55.641Z,11.97
2023-04-19T19:08:23.187Z,11.66
2023-04-19T19:11:14.049Z,12.01
2023-04-19T19:13:37.453Z,12.32
2023-04-19T19:16:05.843Z,11.80
2023-04-19T19:18:32.989Z,12.54
2023-04-19T19:21:00.513Z,12.73
2023-04-19T19:23:35.922Z,12.58
2023-04-19T19:26:05.147Z,12.35
2023-04-19T19:28:32.235Z,12.28
2023-04-19T19:30:59.411Z,12.24
2023-04-19T19:33:28.639Z,12.16
2023-04-19T19:35:56.189Z,12.24
2023-04-19T19:38:23.320Z,12.22
2023-04-19T19:43:20.549Z,12.37
2023-04-19T19:45:47.619Z,12.07
2023-04-19T19:48:14.726Z,12.25
2023-04-19T19:53:11.801Z,12.36
2023-04-19T19:55:38.848Z,12.52
2023-04-19T20:00:46.329Z,13.71
2023-04-19T20:03:14.797Z,13.85
2023-04-19T20:05:42.613Z,13.95
2023-04-19T20:08:12.510Z,14.10
2023-04-19T20:10:42.465Z,13.96
2023-04-19T20:13:09.624Z,13.83
2023-04-19T20:15:38.066Z,13.66
2023-04-19T20:18:05.846Z,13.40
2023-04-19T20:20:33.103Z,13.26
2023-04-19T20:23:00.211Z,13.17
2023-04-19T20:25:27.428Z,13.13
2023-04-19T20:27:55.209Z,13.41
2023-04-19T20:30:22.367Z,13.66
2023-04-19T20:32:50.522Z,13.55
2023-04-19T20:35:18.221Z,13.38
2023-04-19T20:37:46.860Z,13.33
2023-04-19T20:40:16.296Z,12.89
2023-04-19T20:42:45.059Z,12.65
2023-04-19T20:45:14.423Z,12.28
2023-04-19T20:47:42.951Z,12.06
2023-04-19T20:50:10.673Z,12.00
2023-04-19T20:52:37.896Z,11.68
2023-04-19T20:55:05.358Z,11.67
2023-04-19T20:57:32.448Z,11.84
2023-04-19T21:00:00.301Z,11.74
2023-04-19T21:02:28.323Z,11.76
2023-04-19T21:04:55.590Z,11.77
2023-04-19T21:07:22.674Z,11.66
2023-04-19T21:09:49.688Z,11.80
2023-04-19T21:12:17.998Z,11.96
2023-04-19T21:14:47.760Z,11.85
2023-04-19T21:17:16.331Z,11.92
2023-04-19T21:19:43.348Z,11.99
2023-04-19T21:22:10.925Z,11.83
2023-04-19T21:24:38.075Z,11.64
2023-04-19T21:27:05.346Z,11.50
2023-04-19T21:29:32.853Z,11.17
2023-04-19T21:32:00.267Z,11.53
2023-04-19T21:34:27.490Z,11.77
2023-04-19T21:36:54.634Z,11.88
2023-04-19T21:39:21.844Z,12.25
2023-04-19T21:41:48.889Z,11.90
2023-04-19T21:44:15.989Z,11.84
2023-04-19T21:46:43.190Z,11.51
2023-04-19T21:49:10.288Z,11.62
2023-04-19T21:51:37.424Z,11.54
2023-04-19T21:54:04.606Z,11.46
2023-04-19T21:56:32.061Z,11.37
2023-04-19T21:58:59.242Z,11.50
2023-04-19T22:01:27.742Z,11.58
2023-04-19T22:03:55.154Z,11.08
2023-04-19T22:06:22.405Z,11.42
2023-04-19T22:08:49.890Z,11.20
2023-04-19T22:11:17.282Z,11.68
2023-04-19T22:13:44.406Z,12.05
2023-04-19T22:16:11.481Z,11.61
2023-04-19T22:18:41.541Z,11.34
2023-04-19T22:21:09.960Z,11.29
2023-04-19T22:23:37.722Z,11.02
2023-04-19T22:26:04.889Z,11.42
2023-04-19T22:28:33.863Z,11.02
2023-04-19T22:31:00.922Z,10.97
2023-04-19T22:33:28.126Z,10.72
2023-04-19T22:35:55.757Z,10.56
2023-04-19T22:38:22.836Z,10.70
2023-04-19T22:40:49.965Z,10.85
2023-04-19T22:43:17.129Z,11.07
2023-04-19T22:45:47.942Z,11.30
2023-04-19T22:48:15.484Z,11.42
2023-04-19T22:50:43.012Z,11.85
2023-04-19T22:53:12.750Z,11.99
2023-04-19T22:55:40.643Z,11.93
2023-04-19T22:58:08.599Z,11.96
2023-04-19T23:00:37.349Z,12.22
2023-04-19T23:03:04.720Z,12.19
2023-04-19T23:05:31.924Z,12.06
2023-04-19T23:07:59.375Z,11.90
2023-04-19T23:10:26.932Z,11.73
2023-04-19T23:12:57.452Z,11.61
2023-04-19T23:15:25.333Z,11.76
2023-04-19T23:17:52.888Z,11.33
2023-04-19T23:20:19.999Z,11.32
2023-04-19T23:22:47.277Z,11.32
2023-04-19T23:25:14.419Z,11.60
2023-04-19T23:27:41.496Z,11.65
2023-04-19T23:30:09.061Z,11.70
2023-04-19T23:32:36.214Z,11.66
2023-04-19T23:35:03.825Z,11.60
2023-04-19T23:37:31.003Z,11.62
2023-04-19T23:39:58.129Z,11.29
2023-04-19T23:42:25.394Z,11.48
2023-04-19T23:44:55.829Z,11.35
2023-04-19T23:47:23.306Z,11.07
2023-04-19T23:49:50.528Z,11.32
2023-04-19T23:52:18.369Z,11.55
2023-04-19T23:54:45.426Z,11.46
2023-04-19T23:57:12.512Z,11.50
2023-04-19T23:59:39.822Z,11.43
